ジッダ の空港の天気 - METARとTAF

キング・アブドゥルアズィーズ国際空港(ジッダ) ( OEJN / JED ) - サウジアラビア ジッダ
飛行場実況気象(Metar)
観測時間04/21 03:00 AST (04/21 00:00 UTC)
風向・風速静穏 0m/s
視程10km以上
天気現象
少しの雲 雲底高度 1220m
気温27℃
湿度74%
気圧1006hPa
METAROEJN 210000Z 00000KT 9999 FEW040 27/22 Q1006 NOSIG
過去の天気等 Google飛行場航空写真 Wunderground天気予報

過去48時間のMETAR

飛行場予報(TAF)
発表時間: 4/21 02:00 AST (4/20 23:00 UTC)
予報対象時間: 21日3時 AST ~ 22日9時 AST
風向・風速東北東 3m/s
視程6,000m
少しの雲 雲底高度 1,220m
全天の4割程度の雲 雲底高度 3,050m
21日9時 AST ~ 21日11時 AST に徐々に
風向・風速西 8m/s
TAF OEJN 202300Z 2100/2206 06006KT 6000 FEW040 SCT100
BECMG 2106/2108 28015KT